sensor_id;sensor_type;location;lat;lon;timestamp;P1;durP1;ratioP1;P2;durP2;ratioP2
15356;SDS011;7778;48.792;9.260;2023-12-07T00:00:34;7.15;;;4.53;;
15356;SDS011;7778;48.792;9.260;2023-12-07T00:03:21;5.93;;;3.78;;
15356;SDS011;7778;48.792;9.260;2023-12-07T00:06:07;6.90;;;3.60;;
15356;SDS011;7778;48.792;9.260;2023-12-07T00:08:53;6.47;;;3.83;;
15356;SDS011;7778;48.792;9.260;2023-12-07T00:11:39;5.45;;;3.45;;
15356;SDS011;7778;48.792;9.260;2023-12-07T00:14:24;10.45;;;4.80;;
15356;SDS011;7778;48.792;9.260;2023-12-07T00:17:10;8.75;;;4.38;;
15356;SDS011;7778;48.792;9.260;2023-12-07T00:19:57;10.32;;;3.92;;
15356;SDS011;7778;48.792;9.260;2023-12-07T00:22:43;9.35;;;4.00;;
15356;SDS011;7778;48.792;9.260;2023-12-07T00:25:29;7.72;;;4.07;;
15356;SDS011;7778;48.792;9.260;2023-12-07T00:28:14;7.55;;;3.90;;
15356;SDS011;7778;48.792;9.260;2023-12-07T00:31:00;5.75;;;3.28;;
15356;SDS011;7778;48.792;9.260;2023-12-07T00:33:46;5.85;;;3.28;;
15356;SDS011;7778;48.792;9.260;2023-12-07T00:36:33;7.63;;;4.38;;
15356;SDS011;7778;48.792;9.260;2023-12-07T00:39:18;6.30;;;3.10;;
15356;SDS011;7778;48.792;9.260;2023-12-07T00:42:04;6.25;;;3.40;;
15356;SDS011;7778;48.792;9.260;2023-12-07T00:44:50;6.22;;;3.65;;
15356;SDS011;7778;48.792;9.260;2023-12-07T00:47:35;6.53;;;3.92;;
15356;SDS011;7778;48.792;9.260;2023-12-07T00:50:21;9.13;;;4.50;;
15356;SDS011;7778;48.792;9.260;2023-12-07T00:53:08;9.45;;;3.88;;
15356;SDS011;7778;48.792;9.260;2023-12-07T00:55:54;6.03;;;3.53;;
15356;SDS011;7778;48.792;9.260;2023-12-07T00:58:39;8.77;;;4.35;;
15356;SDS011;7778;48.792;9.260;2023-12-07T01:01:25;5.18;;;3.50;;
15356;SDS011;7778;48.792;9.260;2023-12-07T01:04:11;8.45;;;3.33;;
15356;SDS011;7778;48.792;9.260;2023-12-07T01:06:56;7.28;;;4.07;;
15356;SDS011;7778;48.792;9.260;2023-12-07T01:09:43;6.18;;;3.70;;
15356;SDS011;7778;48.792;9.260;2023-12-07T01:12:29;9.20;;;4.43;;
15356;SDS011;7778;48.792;9.260;2023-12-07T01:15:15;7.13;;;3.78;;
15356;SDS011;7778;48.792;9.260;2023-12-07T01:18:01;7.90;;;3.67;;
15356;SDS011;7778;48.792;9.260;2023-12-07T01:20:47;14.65;;;4.47;;
15356;SDS011;7778;48.792;9.260;2023-12-07T01:23:33;7.80;;;4.32;;
15356;SDS011;7778;48.792;9.260;2023-12-07T01:26:20;12.73;;;5.53;;
15356;SDS011;7778;48.792;9.260;2023-12-07T01:29:05;6.95;;;4.30;;
15356;SDS011;7778;48.792;9.260;2023-12-07T01:31:52;8.93;;;3.83;;
15356;SDS011;7778;48.792;9.260;2023-12-07T01:34:38;8.40;;;4.43;;
15356;SDS011;7778;48.792;9.260;2023-12-07T01:37:23;7.68;;;4.13;;
15356;SDS011;7778;48.792;9.260;2023-12-07T01:40:11;6.45;;;4.05;;
15356;SDS011;7778;48.792;9.260;2023-12-07T01:43:00;10.73;;;4.07;;
15356;SDS011;7778;48.792;9.260;2023-12-07T01:45:45;6.25;;;3.40;;
15356;SDS011;7778;48.792;9.260;2023-12-07T01:48:34;7.75;;;3.20;;
15356;SDS011;7778;48.792;9.260;2023-12-07T01:51:20;7.47;;;4.07;;
15356;SDS011;7778;48.792;9.260;2023-12-07T01:54:06;8.55;;;4.10;;
15356;SDS011;7778;48.792;9.260;2023-12-07T01:56:52;7.38;;;4.18;;
15356;SDS011;7778;48.792;9.260;2023-12-07T01:59:41;8.23;;;4.28;;
15356;SDS011;7778;48.792;9.260;2023-12-07T02:02:26;7.55;;;4.03;;
15356;SDS011;7778;48.792;9.260;2023-12-07T02:05:12;9.82;;;3.95;;
15356;SDS011;7778;48.792;9.260;2023-12-07T02:07:59;7.65;;;4.70;;
15356;SDS011;7778;48.792;9.260;2023-12-07T02:10:44;6.57;;;3.53;;
15356;SDS011;7778;48.792;9.260;2023-12-07T02:13:30;8.07;;;4.53;;
15356;SDS011;7778;48.792;9.260;2023-12-07T02:16:20;10.20;;;4.47;;
15356;SDS011;7778;48.792;9.260;2023-12-07T02:19:16;7.68;;;3.88;;
15356;SDS011;7778;48.792;9.260;2023-12-07T02:22:32;8.82;;;4.70;;
15356;SDS011;7778;48.792;9.260;2023-12-07T02:25:29;5.72;;;3.80;;
15356;SDS011;7778;48.792;9.260;2023-12-07T02:28:22;8.27;;;4.60;;
15356;SDS011;7778;48.792;9.260;2023-12-07T02:31:08;7.82;;;3.17;;
15356;SDS011;7778;48.792;9.260;2023-12-07T02:33:53;7.10;;;3.83;;
15356;SDS011;7778;48.792;9.260;2023-12-07T02:36:39;7.60;;;4.25;;
15356;SDS011;7778;48.792;9.260;2023-12-07T02:39:27;7.03;;;3.63;;
15356;SDS011;7778;48.792;9.260;2023-12-07T02:42:15;6.32;;;3.67;;
15356;SDS011;7778;48.792;9.260;2023-12-07T02:45:04;11.15;;;4.47;;
15356;SDS011;7778;48.792;9.260;2023-12-07T02:47:51;5.43;;;4.05;;
15356;SDS011;7778;48.792;9.260;2023-12-07T02:50:37;8.48;;;4.50;;
15356;SDS011;7778;48.792;9.260;2023-12-07T02:53:23;7.60;;;4.43;;
15356;SDS011;7778;48.792;9.260;2023-12-07T02:56:09;8.07;;;4.18;;
15356;SDS011;7778;48.792;9.260;2023-12-07T02:58:55;6.68;;;3.80;;
15356;SDS011;7778;48.792;9.260;2023-12-07T03:01:42;17.85;;;5.78;;
15356;SDS011;7778;48.792;9.260;2023-12-07T03:04:27;10.80;;;3.85;;
15356;SDS011;7778;48.792;9.260;2023-12-07T03:07:13;8.48;;;4.05;;
15356;SDS011;7778;48.792;9.260;2023-12-07T03:09:59;8.75;;;4.10;;
15356;SDS011;7778;48.792;9.260;2023-12-07T03:12:46;7.15;;;4.10;;
15356;SDS011;7778;48.792;9.260;2023-12-07T03:15:32;7.22;;;4.03;;
15356;SDS011;7778;48.792;9.260;2023-12-07T03:18:19;8.30;;;4.63;;
15356;SDS011;7778;48.792;9.260;2023-12-07T03:21:04;6.53;;;4.18;;
15356;SDS011;7778;48.792;9.260;2023-12-07T03:23:50;5.68;;;3.58;;
15356;SDS011;7778;48.792;9.260;2023-12-07T03:26:36;6.00;;;3.55;;
15356;SDS011;7778;48.792;9.260;2023-12-07T03:29:22;9.23;;;4.95;;
15356;SDS011;7778;48.792;9.260;2023-12-07T03:32:08;8.50;;;4.13;;
15356;SDS011;7778;48.792;9.260;2023-12-07T03:34:55;7.63;;;4.72;;
15356;SDS011;7778;48.792;9.260;2023-12-07T03:37:41;11.57;;;5.18;;
15356;SDS011;7778;48.792;9.260;2023-12-07T03:40:27;7.28;;;4.72;;
15356;SDS011;7778;48.792;9.260;2023-12-07T03:43:11;5.85;;;3.75;;
15356;SDS011;7778;48.792;9.260;2023-12-07T03:45:57;8.90;;;4.50;;
15356;SDS011;7778;48.792;9.260;2023-12-07T03:48:42;8.05;;;4.78;;
15356;SDS011;7778;48.792;9.260;2023-12-07T03:51:29;8.73;;;4.72;;
15356;SDS011;7778;48.792;9.260;2023-12-07T03:54:15;7.32;;;4.72;;
15356;SDS011;7778;48.792;9.260;2023-12-07T03:57:03;8.27;;;4.90;;
15356;SDS011;7778;48.792;9.260;2023-12-07T03:59:49;9.15;;;5.15;;
15356;SDS011;7778;48.792;9.260;2023-12-07T04:02:35;8.85;;;5.00;;
15356;SDS011;7778;48.792;9.260;2023-12-07T04:05:21;10.25;;;5.47;;
15356;SDS011;7778;48.792;9.260;2023-12-07T04:08:08;10.32;;;5.60;;
15356;SDS011;7778;48.792;9.260;2023-12-07T04:10:54;8.70;;;4.32;;
15356;SDS011;7778;48.792;9.260;2023-12-07T04:13:39;12.60;;;4.85;;
15356;SDS011;7778;48.792;9.260;2023-12-07T04:16:26;12.20;;;4.90;;
15356;SDS011;7778;48.792;9.260;2023-12-07T04:19:11;8.63;;;5.38;;
15356;SDS011;7778;48.792;9.260;2023-12-07T04:21:57;10.23;;;5.30;;
15356;SDS011;7778;48.792;9.260;2023-12-07T04:24:44;7.82;;;4.57;;
15356;SDS011;7778;48.792;9.260;2023-12-07T04:27:33;11.23;;;5.47;;
15356;SDS011;7778;48.792;9.260;2023-12-07T04:30:20;8.95;;;4.43;;
15356;SDS011;7778;48.792;9.260;2023-12-07T04:33:07;10.35;;;4.88;;
15356;SDS011;7778;48.792;9.260;2023-12-07T04:35:53;10.90;;;6.18;;
15356;SDS011;7778;48.792;9.260;2023-12-07T04:38:38;7.68;;;4.53;;
15356;SDS011;7778;48.792;9.260;2023-12-07T04:41:25;9.40;;;5.38;;
15356;SDS011;7778;48.792;9.260;2023-12-07T04:44:11;8.80;;;5.35;;
15356;SDS011;7778;48.792;9.260;2023-12-07T04:46:57;8.52;;;4.85;;
15356;SDS011;7778;48.792;9.260;2023-12-07T04:49:42;10.00;;;5.65;;
15356;SDS011;7778;48.792;9.260;2023-12-07T04:52:28;13.27;;;6.25;;
15356;SDS011;7778;48.792;9.260;2023-12-07T04:55:14;6.90;;;4.53;;
15356;SDS011;7778;48.792;9.260;2023-12-07T04:58:01;8.88;;;5.57;;
15356;SDS011;7778;48.792;9.260;2023-12-07T05:00:49;8.50;;;4.55;;
15356;SDS011;7778;48.792;9.260;2023-12-07T05:03:35;8.48;;;5.22;;
15356;SDS011;7778;48.792;9.260;2023-12-07T05:06:21;12.05;;;5.85;;
15356;SDS011;7778;48.792;9.260;2023-12-07T05:09:12;7.78;;;4.82;;
15356;SDS011;7778;48.792;9.260;2023-12-07T05:11:59;10.00;;;5.40;;
15356;SDS011;7778;48.792;9.260;2023-12-07T05:14:46;11.18;;;6.45;;
15356;SDS011;7778;48.792;9.260;2023-12-07T05:17:31;9.73;;;4.95;;
15356;SDS011;7778;48.792;9.260;2023-12-07T05:20:17;7.53;;;4.75;;
15356;SDS011;7778;48.792;9.260;2023-12-07T05:23:06;12.38;;;5.25;;
15356;SDS011;7778;48.792;9.260;2023-12-07T05:25:51;7.88;;;4.93;;
15356;SDS011;7778;48.792;9.260;2023-12-07T05:28:37;11.70;;;5.88;;
15356;SDS011;7778;48.792;9.260;2023-12-07T05:31:24;8.30;;;4.82;;
15356;SDS011;7778;48.792;9.260;2023-12-07T05:34:11;11.52;;;5.32;;
15356;SDS011;7778;48.792;9.260;2023-12-07T05:36:57;10.98;;;5.28;;
15356;SDS011;7778;48.792;9.260;2023-12-07T05:39:43;11.30;;;5.68;;
15356;SDS011;7778;48.792;9.260;2023-12-07T05:42:29;10.05;;;5.38;;
15356;SDS011;7778;48.792;9.260;2023-12-07T05:45:18;9.40;;;5.50;;
15356;SDS011;7778;48.792;9.260;2023-12-07T05:48:06;8.27;;;4.82;;
15356;SDS011;7778;48.792;9.260;2023-12-07T05:51:01;11.77;;;4.80;;
15356;SDS011;7778;48.792;9.260;2023-12-07T05:53:47;8.63;;;4.65;;
15356;SDS011;7778;48.792;9.260;2023-12-07T05:56:32;6.65;;;3.95;;
15356;SDS011;7778;48.792;9.260;2023-12-07T05:59:18;9.68;;;5.03;;
15356;SDS011;7778;48.792;9.260;2023-12-07T06:02:03;7.53;;;4.78;;
15356;SDS011;7778;48.792;9.260;2023-12-07T06:04:50;8.63;;;4.90;;
15356;SDS011;7778;48.792;9.260;2023-12-07T06:07:36;7.15;;;4.85;;
15356;SDS011;7778;48.792;9.260;2023-12-07T06:10:21;9.77;;;5.38;;
15356;SDS011;7778;48.792;9.260;2023-12-07T06:13:07;9.18;;;5.25;;
15356;SDS011;7778;48.792;9.260;2023-12-07T06:15:52;5.88;;;3.88;;
15356;SDS011;7778;48.792;9.260;2023-12-07T06:18:38;11.20;;;5.38;;
15356;SDS011;7778;48.792;9.260;2023-12-07T06:21:24;7.63;;;4.32;;
15356;SDS011;7778;48.792;9.260;2023-12-07T06:24:13;10.68;;;4.97;;
15356;SDS011;7778;48.792;9.260;2023-12-07T06:26:59;9.45;;;5.65;;
15356;SDS011;7778;48.792;9.260;2023-12-07T06:29:45;9.07;;;5.22;;
15356;SDS011;7778;48.792;9.260;2023-12-07T06:32:31;10.55;;;4.57;;
15356;SDS011;7778;48.792;9.260;2023-12-07T06:35:16;9.38;;;5.57;;
15356;SDS011;7778;48.792;9.260;2023-12-07T06:38:03;10.27;;;5.35;;
15356;SDS011;7778;48.792;9.260;2023-12-07T06:40:49;8.80;;;5.28;;
15356;SDS011;7778;48.792;9.260;2023-12-07T06:43:34;9.55;;;5.30;;
15356;SDS011;7778;48.792;9.260;2023-12-07T06:46:20;18.98;;;5.85;;
15356;SDS011;7778;48.792;9.260;2023-12-07T06:49:05;10.57;;;5.68;;
15356;SDS011;7778;48.792;9.260;2023-12-07T06:51:56;8.60;;;5.28;;
15356;SDS011;7778;48.792;9.260;2023-12-07T06:54:43;9.40;;;5.03;;
15356;SDS011;7778;48.792;9.260;2023-12-07T06:57:28;11.55;;;5.65;;
15356;SDS011;7778;48.792;9.260;2023-12-07T07:00:16;13.57;;;5.95;;
15356;SDS011;7778;48.792;9.260;2023-12-07T07:03:11;12.98;;;5.07;;
15356;SDS011;7778;48.792;9.260;2023-12-07T07:05:57;13.85;;;5.28;;
15356;SDS011;7778;48.792;9.260;2023-12-07T07:08:44;11.23;;;5.72;;
15356;SDS011;7778;48.792;9.260;2023-12-07T07:11:31;12.68;;;6.07;;
15356;SDS011;7778;48.792;9.260;2023-12-07T07:14:17;12.15;;;5.93;;
15356;SDS011;7778;48.792;9.260;2023-12-07T07:17:03;12.32;;;6.18;;
15356;SDS011;7778;48.792;9.260;2023-12-07T07:19:49;10.55;;;5.88;;
15356;SDS011;7778;48.792;9.260;2023-12-07T07:22:35;9.68;;;5.63;;
15356;SDS011;7778;48.792;9.260;2023-12-07T07:25:22;9.05;;;5.55;;
15356;SDS011;7778;48.792;9.260;2023-12-07T07:28:09;10.45;;;5.95;;
15356;SDS011;7778;48.792;9.260;2023-12-07T07:30:55;13.18;;;6.85;;
15356;SDS011;7778;48.792;9.260;2023-12-07T07:33:40;12.50;;;6.13;;
15356;SDS011;7778;48.792;9.260;2023-12-07T07:36:26;11.07;;;5.45;;
15356;SDS011;7778;48.792;9.260;2023-12-07T07:39:12;11.02;;;6.22;;
15356;SDS011;7778;48.792;9.260;2023-12-07T07:41:58;11.23;;;6.40;;
15356;SDS011;7778;48.792;9.260;2023-12-07T07:44:44;10.73;;;5.72;;
15356;SDS011;7778;48.792;9.260;2023-12-07T07:47:30;12.65;;;6.30;;
15356;SDS011;7778;48.792;9.260;2023-12-07T07:50:16;10.13;;;5.70;;
15356;SDS011;7778;48.792;9.260;2023-12-07T07:53:01;10.95;;;5.55;;
15356;SDS011;7778;48.792;9.260;2023-12-07T07:55:47;10.38;;;6.15;;
15356;SDS011;7778;48.792;9.260;2023-12-07T07:58:32;11.15;;;6.03;;
15356;SDS011;7778;48.792;9.260;2023-12-07T08:01:19;12.43;;;6.72;;
15356;SDS011;7778;48.792;9.260;2023-12-07T08:04:05;9.77;;;5.93;;
15356;SDS011;7778;48.792;9.260;2023-12-07T08:06:57;13.43;;;6.38;;
15356;SDS011;7778;48.792;9.260;2023-12-07T08:09:43;11.40;;;5.57;;
15356;SDS011;7778;48.792;9.260;2023-12-07T08:12:28;12.93;;;6.95;;
15356;SDS011;7778;48.792;9.260;2023-12-07T08:15:14;9.05;;;5.30;;
15356;SDS011;7778;48.792;9.260;2023-12-07T08:18:01;14.50;;;6.28;;
15356;SDS011;7778;48.792;9.260;2023-12-07T08:20:47;9.88;;;5.50;;
15356;SDS011;7778;48.792;9.260;2023-12-07T08:23:32;13.85;;;6.93;;
15356;SDS011;7778;48.792;9.260;2023-12-07T08:26:18;18.15;;;6.80;;
15356;SDS011;7778;48.792;9.260;2023-12-07T08:29:05;14.10;;;7.05;;
15356;SDS011;7778;48.792;9.260;2023-12-07T08:31:51;10.80;;;6.30;;
15356;SDS011;7778;48.792;9.260;2023-12-07T08:34:38;12.40;;;6.50;;
15356;SDS011;7778;48.792;9.260;2023-12-07T08:37:23;14.30;;;6.32;;
15356;SDS011;7778;48.792;9.260;2023-12-07T08:40:09;11.50;;;6.43;;
15356;SDS011;7778;48.792;9.260;2023-12-07T08:42:58;7.78;;;4.90;;
15356;SDS011;7778;48.792;9.260;2023-12-07T08:45:50;12.30;;;6.63;;
15356;SDS011;7778;48.792;9.260;2023-12-07T08:48:36;11.82;;;5.85;;
15356;SDS011;7778;48.792;9.260;2023-12-07T08:51:23;11.68;;;6.38;;
15356;SDS011;7778;48.792;9.260;2023-12-07T08:54:09;10.10;;;5.32;;
15356;SDS011;7778;48.792;9.260;2023-12-07T08:56:55;11.48;;;6.28;;
15356;SDS011;7778;48.792;9.260;2023-12-07T08:59:51;12.35;;;6.88;;
15356;SDS011;7778;48.792;9.260;2023-12-07T09:02:38;11.15;;;5.93;;
15356;SDS011;7778;48.792;9.260;2023-12-07T09:05:25;11.88;;;6.60;;
15356;SDS011;7778;48.792;9.260;2023-12-07T09:08:21;14.07;;;7.03;;
15356;SDS011;7778;48.792;9.260;2023-12-07T09:11:07;13.20;;;5.55;;
15356;SDS011;7778;48.792;9.260;2023-12-07T09:13:52;13.02;;;5.60;;
15356;SDS011;7778;48.792;9.260;2023-12-07T09:16:42;12.25;;;6.70;;
15356;SDS011;7778;48.792;9.260;2023-12-07T09:19:29;11.50;;;5.57;;
15356;SDS011;7778;48.792;9.260;2023-12-07T09:22:19;9.20;;;6.05;;
15356;SDS011;7778;48.792;9.260;2023-12-07T09:25:06;10.52;;;5.75;;
15356;SDS011;7778;48.792;9.260;2023-12-07T09:27:53;9.85;;;6.43;;
15356;SDS011;7778;48.792;9.260;2023-12-07T09:30:39;14.45;;;6.05;;
15356;SDS011;7778;48.792;9.260;2023-12-07T09:33:25;7.95;;;4.25;;
15356;SDS011;7778;48.792;9.260;2023-12-07T09:36:10;9.63;;;5.75;;
15356;SDS011;7778;48.792;9.260;2023-12-07T09:38:57;12.40;;;5.63;;
15356;SDS011;7778;48.792;9.260;2023-12-07T09:41:44;12.32;;;6.38;;
15356;SDS011;7778;48.792;9.260;2023-12-07T09:44:31;11.70;;;5.55;;
15356;SDS011;7778;48.792;9.260;2023-12-07T09:47:16;14.50;;;5.65;;
15356;SDS011;7778;48.792;9.260;2023-12-07T09:50:02;9.65;;;5.90;;
15356;SDS011;7778;48.792;9.260;2023-12-07T09:52:51;9.00;;;4.95;;
15356;SDS011;7778;48.792;9.260;2023-12-07T09:55:40;7.57;;;4.82;;
15356;SDS011;7778;48.792;9.260;2023-12-07T09:58:27;8.70;;;4.93;;
15356;SDS011;7778;48.792;9.260;2023-12-07T10:01:13;9.82;;;5.40;;
15356;SDS011;7778;48.792;9.260;2023-12-07T10:04:14;9.25;;;5.10;;
15356;SDS011;7778;48.792;9.260;2023-12-07T10:07:04;6.93;;;4.35;;
15356;SDS011;7778;48.792;9.260;2023-12-07T10:09:53;16.02;;;5.40;;
15356;SDS011;7778;48.792;9.260;2023-12-07T10:12:44;6.50;;;4.05;;
15356;SDS011;7778;48.792;9.260;2023-12-07T10:15:35;6.30;;;4.00;;
15356;SDS011;7778;48.792;9.260;2023-12-07T10:18:22;8.43;;;4.95;;
15356;SDS011;7778;48.792;9.260;2023-12-07T10:21:09;7.53;;;5.10;;
15356;SDS011;7778;48.792;9.260;2023-12-07T10:23:55;10.15;;;4.63;;
15356;SDS011;7778;48.792;9.260;2023-12-07T10:26:41;9.68;;;4.60;;
15356;SDS011;7778;48.792;9.260;2023-12-07T10:29:28;9.18;;;5.30;;
15356;SDS011;7778;48.792;9.260;2023-12-07T10:32:15;7.70;;;4.70;;
15356;SDS011;7778;48.792;9.260;2023-12-07T10:35:00;9.65;;;5.25;;
15356;SDS011;7778;48.792;9.260;2023-12-07T10:37:46;8.48;;;4.65;;
15356;SDS011;7778;48.792;9.260;2023-12-07T10:40:32;8.32;;;4.75;;
15356;SDS011;7778;48.792;9.260;2023-12-07T10:43:17;8.38;;;4.60;;
15356;SDS011;7778;48.792;9.260;2023-12-07T10:46:05;8.45;;;4.72;;
15356;SDS011;7778;48.792;9.260;2023-12-07T10:48:54;9.35;;;4.53;;
15356;SDS011;7778;48.792;9.260;2023-12-07T10:51:45;6.90;;;4.38;;
15356;SDS011;7778;48.792;9.260;2023-12-07T10:54:38;7.20;;;4.43;;
15356;SDS011;7778;48.792;9.260;2023-12-07T10:57:31;6.38;;;3.80;;
15356;SDS011;7778;48.792;9.260;2023-12-07T11:00:19;7.20;;;4.43;;
15356;SDS011;7778;48.792;9.260;2023-12-07T11:03:09;7.93;;;4.13;;
15356;SDS011;7778;48.792;9.260;2023-12-07T11:06:00;7.82;;;4.57;;
15356;SDS011;7778;48.792;9.260;2023-12-07T11:08:49;8.93;;;4.68;;
15356;SDS011;7778;48.792;9.260;2023-12-07T11:11:39;8.77;;;4.32;;
15356;SDS011;7778;48.792;9.260;2023-12-07T11:14:29;9.32;;;4.80;;
15356;SDS011;7778;48.792;9.260;2023-12-07T11:17:15;8.65;;;4.75;;
15356;SDS011;7778;48.792;9.260;2023-12-07T11:20:07;5.57;;;3.58;;
15356;SDS011;7778;48.792;9.260;2023-12-07T11:23:00;7.40;;;4.43;;
15356;SDS011;7778;48.792;9.260;2023-12-07T11:25:52;6.72;;;3.50;;
15356;SDS011;7778;48.792;9.260;2023-12-07T11:28:38;8.15;;;4.43;;
15356;SDS011;7778;48.792;9.260;2023-12-07T11:31:25;6.30;;;3.50;;
15356;SDS011;7778;48.792;9.260;2023-12-07T11:34:11;6.18;;;3.75;;
15356;SDS011;7778;48.792;9.260;2023-12-07T11:36:58;6.40;;;3.33;;
15356;SDS011;7778;48.792;9.260;2023-12-07T11:39:45;6.20;;;3.33;;
15356;SDS011;7778;48.792;9.260;2023-12-07T11:42:31;5.95;;;3.38;;
15356;SDS011;7778;48.792;9.260;2023-12-07T11:45:23;5.22;;;3.05;;
15356;SDS011;7778;48.792;9.260;2023-12-07T11:48:24;3.65;;;2.45;;
15356;SDS011;7778;48.792;9.260;2023-12-07T11:51:10;5.50;;;3.35;;
15356;SDS011;7778;48.792;9.260;2023-12-07T11:53:56;6.50;;;3.10;;
15356;SDS011;7778;48.792;9.260;2023-12-07T11:56:43;6.95;;;2.75;;
15356;SDS011;7778;48.792;9.260;2023-12-07T11:59:29;5.97;;;3.45;;
15356;SDS011;7778;48.792;9.260;2023-12-07T12:02:18;4.80;;;2.60;;
15356;SDS011;7778;48.792;9.260;2023-12-07T12:05:09;5.47;;;2.83;;
15356;SDS011;7778;48.792;9.260;2023-12-07T12:07:55;7.32;;;2.83;;
15356;SDS011;7778;48.792;9.260;2023-12-07T12:10:41;4.95;;;2.90;;
15356;SDS011;7778;48.792;9.260;2023-12-07T12:13:28;3.88;;;2.55;;
15356;SDS011;7778;48.792;9.260;2023-12-07T12:16:15;7.15;;;2.72;;
15356;SDS011;7778;48.792;9.260;2023-12-07T12:19:01;7.03;;;2.70;;
15356;SDS011;7778;48.792;9.260;2023-12-07T12:21:47;5.07;;;2.67;;
15356;SDS011;7778;48.792;9.260;2023-12-07T12:24:33;3.97;;;2.63;;
15356;SDS011;7778;48.792;9.260;2023-12-07T12:27:19;4.13;;;2.50;;
15356;SDS011;7778;48.792;9.260;2023-12-07T12:30:07;4.18;;;2.55;;
15356;SDS011;7778;48.792;9.260;2023-12-07T12:32:55;5.10;;;2.92;;
15356;SDS011;7778;48.792;9.260;2023-12-07T12:35:41;4.45;;;2.13;;
15356;SDS011;7778;48.792;9.260;2023-12-07T12:38:27;4.32;;;2.20;;
15356;SDS011;7778;48.792;9.260;2023-12-07T12:41:17;10.73;;;3.30;;
15356;SDS011;7778;48.792;9.260;2023-12-07T12:44:03;6.15;;;2.53;;
15356;SDS011;7778;48.792;9.260;2023-12-07T12:46:51;8.00;;;2.78;;
15356;SDS011;7778;48.792;9.260;2023-12-07T12:49:37;3.58;;;2.47;;
15356;SDS011;7778;48.792;9.260;2023-12-07T12:52:24;4.93;;;2.55;;
15356;SDS011;7778;48.792;9.260;2023-12-07T12:55:10;3.65;;;2.60;;
15356;SDS011;7778;48.792;9.260;2023-12-07T12:57:55;4.38;;;2.30;;
15356;SDS011;7778;48.792;9.260;2023-12-07T13:00:41;5.50;;;2.92;;
15356;SDS011;7778;48.792;9.260;2023-12-07T13:03:29;4.07;;;2.13;;
15356;SDS011;7778;48.792;9.260;2023-12-07T13:06:15;5.38;;;2.45;;
15356;SDS011;7778;48.792;9.260;2023-12-07T13:09:01;3.03;;;2.25;;
15356;SDS011;7778;48.792;9.260;2023-12-07T13:11:47;4.40;;;2.03;;
15356;SDS011;7778;48.792;9.260;2023-12-07T13:14:34;5.05;;;2.83;;
15356;SDS011;7778;48.792;9.260;2023-12-07T13:17:21;6.65;;;2.90;;
15356;SDS011;7778;48.792;9.260;2023-12-07T13:20:09;5.13;;;2.85;;
15356;SDS011;7778;48.792;9.260;2023-12-07T13:22:57;4.70;;;2.63;;
15356;SDS011;7778;48.792;9.260;2023-12-07T13:25:43;3.95;;;2.45;;
15356;SDS011;7778;48.792;9.260;2023-12-07T13:28:28;4.93;;;2.55;;
15356;SDS011;7778;48.792;9.260;2023-12-07T13:31:14;4.68;;;2.42;;
15356;SDS011;7778;48.792;9.260;2023-12-07T13:33:59;4.45;;;2.88;;
15356;SDS011;7778;48.792;9.260;2023-12-07T13:36:46;4.70;;;3.05;;
15356;SDS011;7778;48.792;9.260;2023-12-07T13:39:38;6.32;;;2.65;;
15356;SDS011;7778;48.792;9.260;2023-12-07T13:42:27;6.10;;;2.90;;
15356;SDS011;7778;48.792;9.260;2023-12-07T13:45:12;3.00;;;2.13;;
15356;SDS011;7778;48.792;9.260;2023-12-07T13:47:58;4.45;;;2.67;;
15356;SDS011;7778;48.792;9.260;2023-12-07T13:50:43;6.00;;;2.97;;
15356;SDS011;7778;48.792;9.260;2023-12-07T13:53:30;5.35;;;2.75;;
15356;SDS011;7778;48.792;9.260;2023-12-07T13:56:18;1.95;;;1.70;;
15356;SDS011;7778;48.792;9.260;2023-12-07T13:59:04;2.83;;;1.52;;
15356;SDS011;7778;48.792;9.260;2023-12-07T14:01:54;3.28;;;1.80;;
15356;SDS011;7778;48.792;9.260;2023-12-07T14:04:40;3.47;;;1.70;;
15356;SDS011;7778;48.792;9.260;2023-12-07T14:07:25;6.38;;;2.10;;
15356;SDS011;7778;48.792;9.260;2023-12-07T14:10:12;2.80;;;1.70;;
15356;SDS011;7778;48.792;9.260;2023-12-07T14:12:58;2.10;;;1.63;;
15356;SDS011;7778;48.792;9.260;2023-12-07T14:15:44;2.28;;;1.25;;
15356;SDS011;7778;48.792;9.260;2023-12-07T14:18:29;1.42;;;1.15;;
15356;SDS011;7778;48.792;9.260;2023-12-07T14:21:18;1.23;;;0.93;;
15356;SDS011;7778;48.792;9.260;2023-12-07T14:24:05;2.58;;;1.65;;
15356;SDS011;7778;48.792;9.260;2023-12-07T14:26:54;2.38;;;1.45;;
15356;SDS011;7778;48.792;9.260;2023-12-07T14:29:39;2.55;;;1.33;;
15356;SDS011;7778;48.792;9.260;2023-12-07T14:32:25;3.38;;;1.52;;
15356;SDS011;7778;48.792;9.260;2023-12-07T14:35:11;1.40;;;1.15;;
15356;SDS011;7778;48.792;9.260;2023-12-07T14:37:57;2.83;;;1.83;;
15356;SDS011;7778;48.792;9.260;2023-12-07T14:40:43;1.95;;;1.55;;
15356;SDS011;7778;48.792;9.260;2023-12-07T14:43:30;5.68;;;1.30;;
15356;SDS011;7778;48.792;9.260;2023-12-07T14:46:16;2.63;;;1.35;;
15356;SDS011;7778;48.792;9.260;2023-12-07T14:49:01;1.40;;;1.13;;
15356;SDS011;7778;48.792;9.260;2023-12-07T14:51:47;3.00;;;1.80;;
15356;SDS011;7778;48.792;9.260;2023-12-07T14:54:35;2.00;;;1.33;;
15356;SDS011;7778;48.792;9.260;2023-12-07T14:57:21;2.40;;;1.20;;
15356;SDS011;7778;48.792;9.260;2023-12-07T15:00:09;3.55;;;1.17;;
15356;SDS011;7778;48.792;9.260;2023-12-07T15:02:55;1.58;;;1.13;;
15356;SDS011;7778;48.792;9.260;2023-12-07T15:05:41;3.28;;;1.60;;
15356;SDS011;7778;48.792;9.260;2023-12-07T15:08:26;1.15;;;0.88;;
15356;SDS011;7778;48.792;9.260;2023-12-07T15:11:12;2.17;;;1.58;;
15356;SDS011;7778;48.792;9.260;2023-12-07T15:13:58;14.05;;;3.63;;
15356;SDS011;7778;48.792;9.260;2023-12-07T15:16:45;3.83;;;2.10;;
15356;SDS011;7778;48.792;9.260;2023-12-07T15:19:33;5.72;;;2.20;;
15356;SDS011;7778;48.792;9.260;2023-12-07T15:22:18;6.80;;;3.67;;
15356;SDS011;7778;48.792;9.260;2023-12-07T15:25:04;4.32;;;3.08;;
15356;SDS011;7778;48.792;9.260;2023-12-07T15:27:50;3.40;;;1.73;;
15356;SDS011;7778;48.792;9.260;2023-12-07T15:30:35;1.88;;;1.10;;
15356;SDS011;7778;48.792;9.260;2023-12-07T15:33:22;1.67;;;1.52;;
15356;SDS011;7778;48.792;9.260;2023-12-07T15:36:08;2.30;;;1.85;;
15356;SDS011;7778;48.792;9.260;2023-12-07T15:38:54;2.72;;;1.63;;
15356;SDS011;7778;48.792;9.260;2023-12-07T15:41:40;3.10;;;1.98;;
15356;SDS011;7778;48.792;9.260;2023-12-07T15:44:27;3.00;;;1.48;;
15356;SDS011;7778;48.792;9.260;2023-12-07T15:47:12;6.13;;;3.20;;
15356;SDS011;7778;48.792;9.260;2023-12-07T15:49:59;5.90;;;3.50;;
15356;SDS011;7778;48.792;9.260;2023-12-07T15:52:45;2.05;;;1.73;;
15356;SDS011;7778;48.792;9.260;2023-12-07T15:55:31;3.08;;;2.20;;
15356;SDS011;7778;48.792;9.260;2023-12-07T15:58:16;2.00;;;1.75;;
15356;SDS011;7778;48.792;9.260;2023-12-07T16:01:02;2.15;;;1.55;;
15356;SDS011;7778;48.792;9.260;2023-12-07T16:03:48;3.05;;;1.85;;
15356;SDS011;7778;48.792;9.260;2023-12-07T16:06:35;3.33;;;2.25;;
15356;SDS011;7778;48.792;9.260;2023-12-07T16:09:20;6.00;;;2.22;;
15356;SDS011;7778;48.792;9.260;2023-12-07T16:12:06;8.10;;;2.15;;
15356;SDS011;7778;48.792;9.260;2023-12-07T16:14:52;4.43;;;2.75;;
15356;SDS011;7778;48.792;9.260;2023-12-07T16:17:39;6.75;;;3.97;;
15356;SDS011;7778;48.792;9.260;2023-12-07T16:20:25;6.90;;;3.42;;
15356;SDS011;7778;48.792;9.260;2023-12-07T16:23:12;6.75;;;3.28;;
15356;SDS011;7778;48.792;9.260;2023-12-07T16:25:57;3.47;;;2.13;;
15356;SDS011;7778;48.792;9.260;2023-12-07T16:28:43;7.43;;;3.72;;
15356;SDS011;7778;48.792;9.260;2023-12-07T16:31:29;4.88;;;2.90;;
15356;SDS011;7778;48.792;9.260;2023-12-07T16:34:14;4.18;;;3.05;;
15356;SDS011;7778;48.792;9.260;2023-12-07T16:37:00;7.65;;;3.55;;
15356;SDS011;7778;48.792;9.260;2023-12-07T16:39:47;4.80;;;2.85;;
15356;SDS011;7778;48.792;9.260;2023-12-07T16:42:32;5.80;;;3.22;;
15356;SDS011;7778;48.792;9.260;2023-12-07T16:45:20;7.53;;;3.17;;
15356;SDS011;7778;48.792;9.260;2023-12-07T16:48:06;6.72;;;3.45;;
15356;SDS011;7778;48.792;9.260;2023-12-07T16:50:53;12.32;;;3.33;;
15356;SDS011;7778;48.792;9.260;2023-12-07T16:53:39;6.22;;;4.13;;
15356;SDS011;7778;48.792;9.260;2023-12-07T16:56:27;7.68;;;3.20;;